Terminal Aerodrome Forecast
Issued by NWS Bismarck, ND

Home | Current Version | Previous Version | Graphics & Text | Print | Product List | Glossary On
Versions: 1 2 3 4 5 6 7 8 9 10 11 12
000
FTUS43 KBIS 202320
TAFISN
TAF
KISN 202320Z 2100/2124 15005KT P6SM FEW150 SCT200
     FM211300 30004KT P6SM BKN250
     FM211600 34009KT P6SM FEW200=

USA.gov is the U.S. government's official web portal to all federal, state and local government web resources and services.